San Juan, PR (00912)

9:44 PM AST on August 29, 2015 (GMT -0400)
Calle Ismael Rivera | | Change Station
CLOSE
Current Station
Personal Weather Station
Location: San Juan, SAN JUAN
Elevation: 13 ft
Nearby Weather Stations

Elev 13 ft 18.45 °N, 66.05 °W | Updated 7 minutes ago

Partly Cloudy
Partly Cloudy
83.3 °F
Feels Like 90 °F
N
2.2
Wind Variable Wind from SE

Today
High -- | Low -- °F
--% Chance of Precip.
Yesterday
High -- | Low -- °F
Precip. -- in
6:09 AM 6:41 PM
Full, 100% visible
Pressure 30.02 in
Visibility 10.0 miles
Clouds Few 6000 ft
Heat Index 90 °F
Dew Point 74 °F
Humidity 74%
Rainfall 0.00 in
Snow Depth Not available.
UV 0 out of 12
Pollen Not available.
Air Quality Not available.
Flu Activity Not available.
METAR TJSJ 300056Z 09010KT 10SM FEW060 28/23 A3002 RMK AO2 SLP165 T02830233
Pressure 30.02 in
Visibility 10.0 miles
Clouds Few 6000 ft
Heat Index 90 °F
Dew Point 74 °F
Humidity 74%
Rainfall 0.00 in
Snow Depth Not available.
UV 0 out of 12
Pollen Not available.
Air Quality Not available.
Flu Activity Not available.
METAR TJSJ 300056Z 09010KT 10SM FEW060 28/23 A3002 RMK AO2 SLP165 T02830233

10-Day Weather Forecast

×

Almanac

Astronomy

Aug. 29, 2015 Rise Set
Actual Time
Civil Twilight
Nautical Twilight
Astronomical Twilight
Moon
Length of Visible Light
Length of Day
Tomorrow will be .
, % of the Moon is Illuminated

Today's Extremes

State Highs State Lows

Community

WunderPhotos

Upload Photos

1,850,826 photos uploaded!

WunderBlogs® & News

Nearby

Air Quality

  Air Quality AQ Index Pollutant
Not available.

Snow Depth

Station Depth Elevation

Earthquake Activity

City Distance Mag. Time & Date
Minimum magnitude displayed is 2.5.

Coastal Water Temperatures

Place Temperature

Stations

Nearby Weather Stations

Station Location Temp. Windchill Dew Point Humidity Wind Precip. Elev Updated Type